Jones Crossroads, South Carolina
Current Conditions -  °F | °C
As of 2:55 AM on Monday 22 Dec 2014 (Local Time) from KAIK Reporting Station
Haze Haze  
Wind Chill: 39°   Ceiling: 400
Heat Index: 45°   Visibility: 5mi
Dew Point: 45°   Wind: 12mph
Humidity: 100%   Direction: 50°NE
Pressure: 30.1"   Gusts: NA
Location:  33.7495°N, 81.5464°W
Report Text: KAIK 220755Z AUTO 05010KT 5SM BR BKN004 OVC009 07/07 A3010 RMK AO2 PNO
Loading
Personal Weather Stations






























Interactive Weather Map New forecast layout! Learn more

10-Day Weather Forecast

Advertisements
Track Severe Weather on mobile